西西电影站

 找回密码
 立即注册
收藏本版 |订阅

立体3D电影 今日: 0|主题: 357|排名: 14 

作者 回复/查看 最后发表
[BT下载]大白鲨3[3D左右]Jaws.3D.1983.1080p.BluRay.x264-PSYCHD 9.83GB attach_img 百度云电影 2016-6-22 0148 百度云电影 2016-6-22 14:31
[BT磁链] [疯狂动物城].Zootopia.2016.1080p.Half-SBS.3D.BluRay.x264.DTS-WiKi[9.85G ... attach_img 百度云电影 2016-6-15 0175 百度云电影 2016-6-15 14:06
[BT下载]太空之旅/宇宙之旅[3D左右]Journey.to.Space.2015.3D.1080p.BluRay.x264-SPRi ... attach_img 百度云电影 2016-6-12 0157 百度云电影 2016-6-12 13:43
[BT下载]神战:权力之眼[3D左右]Gods.of.Egypt.2016.3D.1080p.BluRay.x264-PSYCHD 10.9 ... attach_img 百度云电影 2016-6-11 0170 百度云电影 2016-6-11 13:41
[BT下载]疯狂动物城[3D左右]Zootopia.2016.3D.1080p.BluRay.x264-PSYCHD 8.74GB ... . ... attach_img 百度云电影 2016-6-11 0188 百度云电影 2016-6-11 13:41
[BT下载]鸭尊宝[3D左右]Quackerz.2016.1080p.3D.BluRay.Half-SBS.x264.DTS-HD.MA.5.1- ... attach_img 百度云电影 2016-6-7 0196 百度云电影 2016-6-7 13:31
[BT下载]鸭尊宝[3D上下]Quackerz.2016.1080p.3D.BluRay.Half-OU.x264.DTS-HD.MA.5.1-R ... attach_img 百度云电影 2016-6-7 0153 百度云电影 2016-6-7 13:31
123 百度云电影 2016-6-1 0159 百度云电影 2016-6-1 13:04
[BT下载]美国恐怖/恐怖行动 An.American.Terror.3D.2014.1080p.BluRay.x264-UNVEiL 6. ... attach_img 百度云电影 2016-6-1 0130 百度云电影 2016-6-1 13:04
[BT下载][美人鱼][左右格式].2016.3D.BluRay.1080p.HSBS.x264.TrueHD5.1.2Audios-CMCT ... attach_img 百度云电影 2016-5-31 0174 百度云电影 2016-5-31 13:01
[BT下载][美人鱼][上下格式].2016.3D.BluRay.1080p.HOU.x264.TrueHD5.1.2Audios-CMCT[ ... attach_img 百度云电影 2016-5-31 094 百度云电影 2016-5-31 13:01
[BT下载]恶灵狂呼[3D左右]Poltergeist.Activity.2015.3D.1080p.BluRay.x264-VALUE 6.6 ... attach_img 百度云电影 2016-5-30 099 百度云电影 2016-5-30 13:00
[BT下载]怒海救援[3D上下]2016.1080p.3D.BluRay.Half-OU.x264.DTS-HD.MA.HR.7.1-RARBG ... attach_img 百度云电影 2016-5-29 0115 百度云电影 2016-5-29 12:55
[BT下载]怒海救援[3D左右]2016.1080p.3D.BluRay.Half-SBS.x264.DTS-HD.MA.HR.7.1-RARB ... attach_img 百度云电影 2016-5-29 085 百度云电影 2016-5-29 12:55
[BT下载]疯狂动物城[3D上下]2016.1080p.3D.BluRay.Half-OU.x264.DTS-HD.MA.7.1-RARBG ... attach_img 百度云电影 2016-5-29 0113 百度云电影 2016-5-29 12:55
[BT下载]疯狂动物城[3D左右]2016.1080p.3D.BluRay.Half-SBS.x264.DTS-HD.MA.7.1-RARBG ... attach_img 百度云电影 2016-5-29 0155 百度云电影 2016-5-29 12:55
[BT磁链][美人鱼].The.Mermaid.2016.1080p.Half-SBS.3D.BluRay.x264-WiKi[12.6G] ... ... attach_img 百度云电影 2016-5-28 0185 百度云电影 2016-5-28 12:42
[BT下载]死亡地堡/亡命地堡[3D左右]Bunker.of.the.Dead.2015.3D.1080p.BluRay.x264-VA ... attach_img 百度云电影 2016-5-28 0120 百度云电影 2016-5-28 12:42
[BT下载]死亡地堡/亡命地堡[3D左右]Bunker.of.the.Dead.2015.3D.720p.BluRay.x264-VAL ... attach_img 百度云电影 2016-5-28 084 百度云电影 2016-5-28 12:42
[BT下载][神战:权力之眼][3D左右].2016.3D.BluRay.1080p.HSBS.x264.DTS.X.7.1-CMCT[1 ... attach_img 百度云电影 2016-5-26 0154 百度云电影 2016-5-26 12:34
[BT下载][神战:权力之眼][3D上下].2016.3D.BluRay.1080p.HOU.x264.DTS.X.7.1-CMCT[14 ... attach_img 百度云电影 2016-5-26 093 百度云电影 2016-5-26 12:34
[BT下载]神战:权力之眼[3D上下]2016.1080p.3D.BluRay.Half-OU.x264.DTS-HD.MA.7.1-RAR ... attach_img 百度云电影 2016-5-21 079 百度云电影 2016-5-21 12:27
[BT下载]神战:权力之眼[3D左右]2016.1080p.3D.BluRay.Half-SBS.x264.DTS-HD.MA.7.1-RA ... attach_img 百度云电影 2016-5-21 087 百度云电影 2016-5-21 12:27
[BT下载]偷车贼[3D左右]Boost.2016.3D.1080p.BluRay.x264-VALUE 6.55GB attach_img 百度云电影 2016-5-15 0187 百度云电影 2016-5-15 12:06
[BT下载]偷车贼[3D左右]Boost.3D.2016.720p.BluRay.x264-VALUE 4.37GB attach_img 百度云电影 2016-5-15 0158 百度云电影 2016-5-15 12:06
医院2[3D左右][BT下载]The.Hospital.2.3D.2015.1080p.BluRay.x264-UNVEiL 6.55GB ... ... attach_img 百度云电影 2016-5-8 0146 百度云电影 2016-5-8 11:51
[BT下载]医院[3D左右]The.Hospital.3D.2013.1080p.BluRay.x264-UNVEiL 5.46GB attach_img 百度云电影 2016-5-8 0116 百度云电影 2016-5-8 11:51
[BT下载]鬼哭神嚎的房子[3D左右]The.Amityville.Playhouse.2015.3D.720p.BluRay.x264- ... attach_img 百度云电影 2016-5-6 0127 百度云电影 2016-5-6 11:48
[BT下载][九层妖塔(3D左右半宽)]2015.BluRay.1080p.HSBS.x264-CMCT[3D中文字幕/10.8G] ... attach_img 百度云电影 2016-5-3 0134 百度云电影 2016-5-3 11:28
[BT下载][九层妖塔(3D版上下半高)]2015.BluRay.1080p.HOU.x264-CMCT[3D中文字幕/10.8G ... attach_img 百度云电影 2016-5-3 095 百度云电影 2016-5-3 11:28
下一页 »

小黑屋|西西电影站 ( 闽ICP备160050789号-1 )

所有资源来自网络采集,如果侵犯了您的权益,请发邮件至 635343653@qq.com,立即清除相关链接

GMT+8, 2017-3-31 00:38 , Processed in 0.056254 second(s), 16 queries .

Powered by Discuz! X3.2

© 2001-2013 Comsenz Inc.

返回顶部 返回版块